Time;durP1;ratioP1;P1;durP2;ratioP2;P2;SDS_P1;SDS_P2;PMS_P1;PMS_P2;Temp;Humidity;BMP_temperature;BMP_pressure;BME280_temperature;BME280_humidity;BME280_pressure;Samples;Min_cycle;Max_cycle;Signal;HPM_P1;HPM_P2
2022/01/24 00:01:15;;;;;;;8.65;7.22;;;2.90;99.90;;;;;;5033462;28;20221;-76
2022/01/24 00:03:42;;;;;;;8.38;7.57;;;2.90;99.90;;;;;;5033369;28;20207;-76
2022/01/24 00:06:14;;;;;;;8.82;8.02;;;2.90;99.90;;;;;;5026209;28;20233;-75
2022/01/24 00:08:41;;;;;;;7.68;6.97;;;3.00;99.90;;;;;;5033894;28;20245;-74
2022/01/24 00:11:12;;;;;;;8.20;7.40;;;2.90;99.90;;;;;;5033594;28;20216;-74
2022/01/24 00:16:32;;;;;;;8.63;7.80;;;3.00;99.90;;;;;;5032784;28;20234;-73
2022/01/24 00:27:14;;;;;;;8.60;7.70;;;2.80;99.90;;;;;;5022687;28;20698;-76
2022/01/24 00:29:41;;;;;;;8.85;7.95;;;2.70;99.90;;;;;;5026865;28;20196;-76
2022/01/24 00:32:08;;;;;;;8.88;7.90;;;2.70;99.90;;;;;;5027395;28;20195;-76
2022/01/24 00:34:35;;;;;;;9.70;7.80;;;2.60;99.90;;;;;;5032814;28;20826;-76
2022/01/24 00:37:05;;;;;;;9.35;8.40;;;2.60;99.90;;;;;;5030615;28;20203;-77
2022/01/24 00:39:32;;;;;;;7.97;7.25;;;2.50;99.90;;;;;;5033148;28;20270;-76
2022/01/24 00:42:11;;;;;;;9.40;8.45;;;2.60;99.90;;;;;;5032684;28;20204;-76
2022/01/24 00:44:53;;;;;;;9.43;8.43;;;2.50;99.90;;;;;;5028965;28;20213;-76
2022/01/24 00:47:25;;;;;;;8.55;7.65;;;2.50;99.90;;;;;;5031181;28;20234;-76
2022/01/24 00:55:23;;;;;;;8.93;8.02;;;2.30;99.90;;;;;;5029793;28;20572;-76
2022/01/24 00:57:50;;;;;;;8.65;7.85;;;2.30;99.90;;;;;;5032266;28;20281;-76
2022/01/24 01:00:17;;;;;;;8.70;7.80;;;2.30;99.90;;;;;;5032309;28;20295;-76
2022/01/24 01:02:44;;;;;;;9.73;8.30;;;2.30;99.90;;;;;;5031878;28;20201;-76
2022/01/24 01:05:28;;;;;;;9.63;8.18;;;2.30;99.90;;;;;;5031096;28;20306;-77
2022/01/24 01:18:03;;;;;;;9.00;8.10;;;2.30;99.90;;;;;;5033731;28;20230;-76
2022/01/24 01:18:58;;;;;;;8.80;7.80;;;2.40;99.90;;;;;;5031885;28;20210;-76
2022/01/24 01:21:25;;;;;;;9.30;8.30;;;2.40;99.90;;;;;;5031739;28;20273;-76
2022/01/24 01:23:57;;;;;;;9.32;8.43;;;2.40;99.90;;;;;;5031853;28;20219;-76
2022/01/24 01:26:30;;;;;;;8.52;7.72;;;2.40;99.90;;;;;;5032223;28;20219;-76
2022/01/24 01:29:02;;;;;;;9.93;8.52;;;2.40;99.90;;;;;;5032051;28;20732;-76
2022/01/24 01:31:39;;;;;;;8.32;7.53;;;2.30;99.90;;;;;;5030855;28;20198;-76
2022/01/24 01:34:18;;;;;;;8.10;7.30;;;2.30;99.90;;;;;;5032181;28;20346;-76
2022/01/24 01:37:10;;;;;;;9.02;7.90;;;2.30;99.90;;;;;;5027998;28;20225;-76
2022/01/24 01:53:50;;;;;;;9.70;8.70;;;2.20;99.90;;;;;;5032047;28;20210;-76
2022/01/24 01:56:19;;;;;;;8.55;7.75;;;2.10;99.90;;;;;;5030334;28;20214;-76
2022/01/24 01:58:46;;;;;;;9.20;8.23;;;2.10;99.90;;;;;;5026741;28;20197;-76
2022/01/24 02:01:12;;;;;;;8.02;7.32;;;2.00;99.90;;;;;;5030904;28;20197;-76
2022/01/24 02:03:40;;;;;;;8.07;7.28;;;2.00;99.90;;;;;;5032069;28;20335;-76
2022/01/24 02:06:06;;;;;;;9.68;8.73;;;2.00;99.90;;;;;;5030834;28;20228;-77
2022/01/24 02:08:34;;;;;;;8.52;7.63;;;2.00;99.90;;;;;;5026132;28;20649;-76
2022/01/24 02:11:01;;;;;;;9.20;8.38;;;2.00;99.90;;;;;;5030524;28;20197;-76
2022/01/24 02:13:31;;;;;;;9.50;8.40;;;2.00;99.90;;;;;;5031440;28;20237;-77
2022/01/24 02:16:08;;;;;;;8.52;7.80;;;2.00;99.90;;;;;;5031953;28;20295;-77
2022/01/24 02:18:40;;;;;;;8.15;7.35;;;2.10;99.90;;;;;;5028409;28;20622;-77
2022/01/24 02:21:12;;;;;;;8.90;8.13;;;2.10;99.90;;;;;;5029745;28;20221;-77
2022/01/24 02:23:44;;;;;;;8.70;7.88;;;2.10;99.90;;;;;;5027319;28;20225;-77
2022/01/24 02:26:16;;;;;;;9.27;8.38;;;2.10;99.90;;;;;;5030988;28;20280;-76
2022/01/24 02:28:52;;;;;;;8.48;7.68;;;2.00;99.90;;;;;;5031996;28;20191;-76
2022/01/24 02:34:01;;;;;;;10.50;9.48;;;1.90;99.90;;;;;;5010213;28;20211;-76
2022/01/24 02:36:28;;;;;;;9.93;8.48;;;1.90;99.90;;;;;;5030641;28;20556;-76
2022/01/24 02:39:06;;;;;;;9.90;8.90;;;1.90;99.90;;;;;;5031284;28;20912;-76
2022/01/24 02:49:48;;;;;;;8.77;7.88;;;1.80;99.90;;;;;;5034224;28;20300;-76
2022/01/24 02:52:16;;;;;;;9.95;8.95;;;1.80;99.90;;;;;;5034536;28;20280;-76
2022/01/24 02:54:46;;;;;;;9.35;8.43;;;1.80;99.90;;;;;;5034075;28;20264;-76
2022/01/24 02:57:13;;;;;;;9.70;8.80;;;1.80;99.90;;;;;;5034876;28;20559;-77
2022/01/24 02:59:41;;;;;;;9.27;8.15;;;1.90;99.90;;;;;;5034906;28;20605;-76
2022/01/24 03:02:08;;;;;;;8.20;7.40;;;1.90;99.90;;;;;;5034807;28;20194;-76
2022/01/24 03:04:35;;;;;;;9.00;8.13;;;1.90;99.90;;;;;;5031829;28;20218;-76
2022/01/24 03:07:02;;;;;;;9.35;8.35;;;1.90;99.90;;;;;;5033152;28;20291;-76
2022/01/24 03:09:29;;;;;;;9.18;8.27;;;2.00;99.90;;;;;;5032970;28;20193;-76
2022/01/24 03:12:03;;;;;;;8.57;7.75;;;2.00;99.90;;;;;;5034208;28;20186;-76
2022/01/24 03:14:33;;;;;;;8.57;7.68;;;2.00;99.90;;;;;;5032126;28;20230;-76
2022/01/24 03:17:01;;;;;;;9.75;8.82;;;2.00;99.90;;;;;;5035000;28;20198;-76
2022/01/24 03:19:28;;;;;;;9.75;8.60;;;2.00;99.90;;;;;;5031938;28;20221;-76
2022/01/24 03:21:55;;;;;;;9.00;8.10;;;2.00;99.90;;;;;;5034046;28;20193;-76
2022/01/24 03:24:23;;;;;;;8.40;7.50;;;2.00;99.90;;;;;;5030280;28;20225;-76
2022/01/24 03:26:51;;;;;;;8.70;7.90;;;1.90;99.90;;;;;;5034296;28;20226;-76
2022/01/24 03:29:19;;;;;;;9.70;8.68;;;1.90;99.90;;;;;;5034290;28;20198;-76
2022/01/24 03:31:46;;;;;;;10.00;9.00;;;1.90;99.90;;;;;;5034225;28;20190;-76
2022/01/24 03:34:15;;;;;;;9.13;8.23;;;1.90;99.90;;;;;;5033684;28;20216;-77
2022/01/24 03:36:43;;;;;;;10.30;9.30;;;1.90;99.90;;;;;;5033344;28;20197;-76
2022/01/24 03:39:11;;;;;;;10.23;9.20;;;1.90;99.90;;;;;;5034356;28;20204;-77
2022/01/24 03:41:40;;;;;;;10.32;9.32;;;1.90;99.90;;;;;;5033852;28;20635;-76
2022/01/24 03:44:08;;;;;;;10.77;9.77;;;1.90;99.90;;;;;;5033500;28;20309;-76
2022/01/24 03:47:00;;;;;;;11.13;10.02;;;1.90;99.90;;;;;;5032890;28;20194;-77
2022/01/24 03:49:48;;;;;;;11.10;10.10;;;1.90;99.90;;;;;;5026945;28;20186;-76
2022/01/24 03:52:16;;;;;;;9.85;8.95;;;1.90;99.90;;;;;;5032505;28;20202;-76
2022/01/24 03:54:44;;;;;;;9.57;8.68;;;1.90;99.90;;;;;;5033572;28;20725;-74
2022/01/24 03:57:12;;;;;;;9.95;8.95;;;1.90;99.90;;;;;;5033573;28;20258;-75
2022/01/24 03:59:39;;;;;;;9.23;8.32;;;1.90;99.90;;;;;;5029482;28;20709;-75
2022/01/24 04:02:08;;;;;;;10.00;9.02;;;1.80;99.90;;;;;;5032749;28;20740;-75
2022/01/24 04:04:34;;;;;;;10.90;9.80;;;1.80;99.90;;;;;;5025062;28;20243;-74
2022/01/24 04:07:01;;;;;;;10.23;9.25;;;1.90;99.90;;;;;;5032875;28;20769;-75
2022/01/24 04:09:28;;;;;;;10.05;9.05;;;1.80;99.90;;;;;;5033593;28;20552;-75
2022/01/24 04:11:58;;;;;;;10.05;9.15;;;1.80;99.90;;;;;;5033558;28;20203;-74
2022/01/24 04:14:33;;;;;;;9.63;8.68;;;1.80;99.90;;;;;;5032892;28;20222;-74
2022/01/24 04:17:20;;;;;;;9.57;8.57;;;1.80;99.90;;;;;;5032678;28;20205;-74
2022/01/24 04:22:38;;;;;;;10.30;9.30;;;1.80;99.90;;;;;;5032639;28;20248;-74
2022/01/24 04:25:13;;;;;;;10.25;9.00;;;1.80;99.90;;;;;;5033066;28;20193;-75
2022/01/24 04:27:40;;;;;;;10.90;9.90;;;1.80;99.90;;;;;;5033358;28;20225;-73
2022/01/24 04:30:09;;;;;;;11.13;9.60;;;1.70;99.90;;;;;;5032709;28;20613;-74
2022/01/24 04:32:36;;;;;;;9.77;8.80;;;1.70;99.90;;;;;;5032889;28;20623;-73
2022/01/24 04:35:05;;;;;;;10.10;9.07;;;1.80;99.90;;;;;;5032886;28;20882;-75
2022/01/24 04:37:32;;;;;;;10.35;9.38;;;1.80;99.90;;;;;;5028518;28;20637;-74
2022/01/24 04:39:59;;;;;;;11.55;10.35;;;1.80;99.90;;;;;;5031528;28;20239;-74
2022/01/24 04:42:35;;;;;;;10.93;9.93;;;1.80;99.90;;;;;;5029564;28;20308;-75
2022/01/24 04:45:24;;;;;;;11.43;10.32;;;1.80;99.90;;;;;;5029405;28;20220;-76
2022/01/24 04:51:01;;;;;;;11.18;10.18;;;1.80;99.90;;;;;;5031288;28;20205;-76
2022/01/24 04:53:50;;;;;;;10.15;9.15;;;1.90;99.90;;;;;;5025756;28;20211;-76
2022/01/24 04:56:17;;;;;;;11.05;9.95;;;1.90;99.90;;;;;;5031519;28;20260;-76
2022/01/24 04:58:44;;;;;;;12.25;11.05;;;1.90;99.90;;;;;;5031621;28;20226;-75
2022/01/24 05:01:13;;;;;;;12.00;10.80;;;1.90;99.90;;;;;;5032042;28;20210;-76
2022/01/24 05:03:40;;;;;;;10.45;9.45;;;2.00;99.90;;;;;;5032299;28;20579;-76
2022/01/24 05:06:08;;;;;;;11.82;10.63;;;2.00;99.90;;;;;;5032004;28;20190;-76
2022/01/24 05:08:35;;;;;;;12.45;11.15;;;2.10;99.90;;;;;;5032147;28;20232;-76
2022/01/24 05:11:06;;;;;;;10.95;9.85;;;2.10;99.90;;;;;;5028002;28;20289;-78
2022/01/24 05:24:35;;;;;;;12.85;11.55;;;2.20;99.90;;;;;;5028104;28;20279;-75
2022/01/24 05:27:02;;;;;;;13.10;11.90;;;2.10;99.90;;;;;;5027938;28;20208;-76
2022/01/24 05:29:29;;;;;;;15.65;14.05;;;2.10;99.90;;;;;;5026418;28;20882;-76
2022/01/24 05:31:57;;;;;;;18.77;16.75;;;2.20;99.90;;;;;;5025011;28;20205;-74
2022/01/24 05:34:24;;;;;;;15.50;13.95;;;2.20;99.90;;;;;;5020114;28;20215;-75
2022/01/24 05:36:53;;;;;;;13.50;12.20;;;2.20;99.90;;;;;;5016749;28;20195;-75
2022/01/24 05:39:20;;;;;;;14.30;13.00;;;2.20;99.90;;;;;;5027492;28;20301;-76
2022/01/24 05:41:47;;;;;;;15.35;13.85;;;2.40;99.90;;;;;;5029336;28;20289;-77
2022/01/24 05:44:13;;;;;;;13.10;11.85;;;2.40;99.90;;;;;;5024574;28;20230;-77
2022/01/24 05:46:40;;;;;;;13.18;11.98;;;2.40;99.90;;;;;;5027061;28;20540;-76
2022/01/24 05:49:07;;;;;;;11.95;10.85;;;2.40;99.90;;;;;;5027481;28;20222;-76
2022/01/24 05:51:34;;;;;;;12.85;11.45;;;2.50;99.90;;;;;;5027098;28;20285;-76
2022/01/24 05:54:03;;;;;;;12.50;11.32;;;2.50;99.90;;;;;;5024461;28;20221;-75
2022/01/24 05:56:30;;;;;;;11.15;10.02;;;2.50;99.90;;;;;;5026817;28;20199;-76
2022/01/24 05:58:57;;;;;;;11.15;10.13;;;2.50;99.90;;;;;;5026181;28;20276;-85
2022/01/24 06:01:24;;;;;;;11.18;10.13;;;2.40;99.90;;;;;;5029068;28;20203;-76
2022/01/24 06:03:51;;;;;;;11.40;10.30;;;2.40;99.90;;;;;;5026139;28;20215;-76
2022/01/24 06:06:18;;;;;;;12.30;11.13;;;2.40;99.90;;;;;;5025355;28;20206;-76
2022/01/24 06:08:45;;;;;;;11.98;10.82;;;2.40;99.90;;;;;;5026625;28;20663;-76
2022/01/24 06:11:13;;;;;;;12.10;10.90;;;2.40;99.90;;;;;;5027932;28;20201;-76
2022/01/24 06:13:42;;;;;;;11.65;10.45;;;2.40;99.90;;;;;;5026136;28;20297;-76
2022/01/24 06:16:09;;;;;;;12.38;11.18;;;2.40;99.90;;;;;;5028003;28;20237;-75
2022/01/24 06:18:35;;;;;;;11.98;10.77;;;2.40;99.90;;;;;;5027185;28;20283;-76
2022/01/24 06:21:02;;;;;;;11.85;10.75;;;2.30;99.90;;;;;;5029185;28;20210;-76
2022/01/24 06:23:30;;;;;;;11.85;10.65;;;2.30;99.90;;;;;;5026916;28;20272;-76
2022/01/24 06:25:57;;;;;;;11.80;10.70;;;2.30;99.90;;;;;;5028956;28;20289;-76
2022/01/24 06:28:25;;;;;;;11.25;10.15;;;2.30;99.90;;;;;;5027897;28;20742;-76
2022/01/24 06:30:53;;;;;;;11.63;10.48;;;2.20;99.90;;;;;;5028522;28;20202;-76
2022/01/24 06:33:20;;;;;;;12.05;10.85;;;2.20;99.90;;;;;;5026021;28;20229;-77
2022/01/24 06:35:47;;;;;;;11.65;9.88;;;2.20;99.90;;;;;;5024843;28;20226;-76
2022/01/24 06:38:14;;;;;;;10.80;9.80;;;2.20;99.90;;;;;;5026406;28;20213;-77
2022/01/24 06:40:41;;;;;;;12.25;11.05;;;2.20;99.90;;;;;;5025740;28;20194;-76
2022/01/24 06:43:08;;;;;;;11.68;10.00;;;2.20;99.90;;;;;;5026964;28;20241;-76
2022/01/24 06:45:36;;;;;;;12.90;11.60;;;2.20;99.90;;;;;;5026015;28;20194;-76
2022/01/24 06:48:04;;;;;;;11.02;9.93;;;2.10;99.90;;;;;;5023208;28;20225;-76
2022/01/24 06:50:31;;;;;;;10.68;9.65;;;2.10;99.90;;;;;;5023538;28;20650;-75
2022/01/24 06:52:58;;;;;;;12.25;11.05;;;2.10;99.90;;;;;;5024346;28;20225;-76
2022/01/24 06:55:25;;;;;;;11.27;10.18;;;2.10;99.90;;;;;;5025756;28;20198;-76
2022/01/24 06:57:53;;;;;;;11.88;10.68;;;2.00;99.90;;;;;;5022409;28;20290;-76
2022/01/24 07:00:25;;;;;;;13.50;11.63;;;2.00;99.90;;;;;;5025235;28;20198;-76
2022/01/24 07:02:54;;;;;;;12.48;11.20;;;2.00;99.90;;;;;;5025829;28;20214;-74
2022/01/24 07:05:21;;;;;;;12.80;11.60;;;2.00;99.90;;;;;;5030708;28;20400;-76
2022/01/24 07:07:48;;;;;;;12.85;11.52;;;2.00;99.90;;;;;;5028088;28;20198;-76
2022/01/24 07:10:16;;;;;;;11.75;10.55;;;2.20;99.90;;;;;;5026811;28;20683;-76
2022/01/24 07:12:43;;;;;;;13.00;11.57;;;2.00;99.90;;;;;;5026569;28;20770;-76
2022/01/24 07:15:14;;;;;;;11.95;10.77;;;2.00;99.90;;;;;;5023601;28;20261;-77
2022/01/24 07:18:01;;;;;;;12.98;11.65;;;2.00;99.90;;;;;;5028031;28;20210;-77
2022/01/24 07:20:29;;;;;;;12.77;11.55;;;2.10;99.90;;;;;;5026268;28;20293;-76
2022/01/24 07:22:56;;;;;;;12.40;11.20;;;2.10;99.90;;;;;;5018065;28;20217;-77
2022/01/24 07:25:23;;;;;;;14.90;13.43;;;2.10;99.90;;;;;;5024964;28;20202;-77
2022/01/24 07:27:50;;;;;;;13.57;12.23;;;2.20;99.90;;;;;;5024292;28;20229;-77
2022/01/24 07:30:17;;;;;;;12.95;11.75;;;2.20;99.90;;;;;;5026618;28;20225;-76
2022/01/24 07:32:44;;;;;;;13.23;11.93;;;2.30;99.90;;;;;;5024553;28;20224;-77
2022/01/24 07:35:11;;;;;;;14.68;12.50;;;2.30;99.90;;;;;;5023234;28;20207;-76
2022/01/24 07:37:40;;;;;;;14.07;12.68;;;2.40;99.90;;;;;;5030269;28;20260;-76
2022/01/24 07:40:09;;;;;;;14.27;12.88;;;2.50;99.90;;;;;;5028567;28;20604;-77
2022/01/24 07:43:07;;;;;;;14.82;13.43;;;2.50;99.90;;;;;;5027642;28;20213;-77
2022/01/24 07:45:35;;;;;;;14.00;12.60;;;2.60;99.90;;;;;;5022575;28;20202;-77
2022/01/24 07:48:02;;;;;;;13.65;12.13;;;2.60;99.90;;;;;;5033680;28;20200;-77
2022/01/24 07:50:29;;;;;;;12.75;11.55;;;2.60;99.90;;;;;;5032517;28;20534;-77
2022/01/24 07:52:59;;;;;;;13.77;12.38;;;2.70;99.90;;;;;;5028793;28;20221;-78
2022/01/24 07:55:26;;;;;;;13.43;12.13;;;2.70;99.90;;;;;;5029930;28;20200;-77
2022/01/24 07:57:53;;;;;;;12.50;11.30;;;2.80;99.90;;;;;;5028038;28;20196;-77
2022/01/24 08:00:20;;;;;;;12.15;10.93;;;2.80;99.90;;;;;;5030564;28;20560;-77
2022/01/24 08:02:48;;;;;;;11.52;10.35;;;2.80;99.90;;;;;;5029564;28;20723;-77
2022/01/24 08:05:15;;;;;;;12.10;10.43;;;2.90;99.90;;;;;;5026155;28;20256;-77
2022/01/24 08:07:42;;;;;;;12.75;11.02;;;2.80;99.90;;;;;;5024797;28;20234;-77
2022/01/24 08:10:10;;;;;;;11.40;10.35;;;2.80;99.90;;;;;;5026997;28;20325;-77
2022/01/24 08:12:39;;;;;;;11.65;10.38;;;2.90;99.90;;;;;;5028806;28;20214;-77
2022/01/24 08:15:08;;;;;;;11.93;10.73;;;3.00;99.90;;;;;;5029935;28;20205;-77
2022/01/24 08:17:35;;;;;;;13.32;10.80;;;3.10;99.90;;;;;;5030139;28;20552;-77
2022/01/24 08:20:02;;;;;;;11.05;10.05;;;3.10;99.90;;;;;;5028103;28;20196;-77
2022/01/24 08:22:29;;;;;;;11.98;10.88;;;3.10;99.90;;;;;;5025876;28;20214;-77
2022/01/24 08:24:56;;;;;;;11.23;10.32;;;3.10;99.90;;;;;;5026472;28;20191;-77
2022/01/24 08:27:25;;;;;;;11.90;10.80;;;3.20;99.90;;;;;;5026660;28;20261;-76
2022/01/24 08:29:52;;;;;;;11.48;10.32;;;3.30;99.90;;;;;;5026277;28;20816;-78
2022/01/24 08:32:19;;;;;;;11.45;10.23;;;3.30;99.90;;;;;;5028942;28;20322;-77
2022/01/24 08:34:46;;;;;;;11.25;10.25;;;3.40;99.90;;;;;;5028918;28;20196;-77
2022/01/24 08:37:13;;;;;;;11.95;10.10;;;3.40;99.90;;;;;;5030805;28;20211;-77
2022/01/24 08:39:40;;;;;;;11.23;10.23;;;3.50;99.90;;;;;;5029702;28;20207;-77
2022/01/24 08:42:15;;;;;;;11.25;10.25;;;3.60;99.90;;;;;;5022782;28;20221;-77
2022/01/24 08:47:30;;;;;;;12.02;10.93;;;3.70;99.90;;;;;;5027237;28;20684;-78
2022/01/24 08:49:59;;;;;;;9.65;8.85;;;3.80;99.90;;;;;;5026840;28;20233;-78
2022/01/24 08:52:26;;;;;;;11.00;10.00;;;3.90;99.90;;;;;;5028478;28;20217;-78
2022/01/24 08:54:53;;;;;;;10.00;9.13;;;4.20;99.90;;;;;;5030831;28;20248;-78
2022/01/24 08:57:24;;;;;;;10.65;9.70;;;4.40;99.90;;;;;;5025729;28;20189;-78
2022/01/24 08:59:53;;;;;;;9.50;8.57;;;4.60;99.90;;;;;;5027315;28;20545;-78
2022/01/24 09:02:21;;;;;;;9.68;8.80;;;4.80;99.90;;;;;;5027762;28;20234;-78
2022/01/24 09:04:48;;;;;;;8.80;8.00;;;5.00;99.90;;;;;;5028379;28;20193;-78
2022/01/24 09:07:18;;;;;;;9.55;8.73;;;5.20;99.90;;;;;;5027558;28;20284;-78
2022/01/24 09:09:45;;;;;;;10.40;8.90;;;5.50;99.90;;;;;;5022916;28;20268;-78
2022/01/24 09:12:12;;;;;;;8.65;7.80;;;5.90;99.90;;;;;;5025802;28;20222;-78
2022/01/24 09:14:41;;;;;;;6.90;6.30;;;6.50;99.90;;;;;;5025683;28;20205;-79
2022/01/24 09:17:09;;;;;;;7.18;6.47;;;7.30;99.90;;;;;;5025282;28;20221;-78
2022/01/24 09:19:36;;;;;;;7.10;6.35;;;8.00;99.90;;;;;;5025336;28;20202;-78
2022/01/24 09:22:03;;;;;;;6.10;5.60;;;8.70;99.90;;;;;;5023604;28;20214;-78
2022/01/24 09:24:30;;;;;;;6.30;5.80;;;9.40;99.90;;;;;;5027029;28;20207;-78
2022/01/24 09:26:57;;;;;;;6.07;5.68;;;10.00;99.90;;;;;;5026027;28;20192;-78
2022/01/24 09:29:24;;;;;;;5.55;5.15;;;10.50;99.90;;;;;;5026443;28;20224;-78
2022/01/24 09:31:51;;;;;;;5.68;5.18;;;11.20;99.90;;;;;;5022297;28;20710;-78
2022/01/24 09:34:20;;;;;;;5.90;5.45;;;11.40;99.90;;;;;;5027301;28;20201;-78
2022/01/24 09:36:48;;;;;;;5.32;4.93;;;11.80;99.90;;;;;;5026417;28;20583;-78
2022/01/24 09:39:15;;;;;;;5.90;5.43;;;11.90;99.90;;;;;;5025868;28;20295;-78
2022/01/24 09:41:42;;;;;;;6.00;5.60;;;11.80;99.90;;;;;;5024768;28;20342;-78
2022/01/24 09:44:09;;;;;;;5.95;5.47;;;11.70;99.30;;;;;;5024324;28;20923;-78
2022/01/24 09:46:36;;;;;;;5.97;5.47;;;11.60;99.50;;;;;;5025198;28;20204;-78
2022/01/24 09:49:03;;;;;;;5.80;5.30;;;11.50;99.50;;;;;;5018942;28;20221;-78
2022/01/24 09:51:33;;;;;;;5.93;5.40;;;11.70;99.10;;;;;;5021284;28;20694;-78
2022/01/24 09:54:00;;;;;;;6.20;5.60;;;12.00;98.40;;;;;;5025049;28;20294;-78
2022/01/24 09:56:28;;;;;;;5.90;5.40;;;12.10;97.90;;;;;;5025714;28;20299;-78
2022/01/24 09:58:55;;;;;;;5.13;4.65;;;12.40;97.50;;;;;;5022636;28;20201;-78
2022/01/24 10:01:23;;;;;;;5.82;5.32;;;12.90;97.10;;;;;;5026401;28;20288;-78
2022/01/24 10:04:09;;;;;;;5.82;5.30;;;13.30;96.00;;;;;;5025598;28;20656;-78
2022/01/24 10:06:57;;;;;;;5.63;5.13;;;12.40;95.50;;;;;;5028987;28;20228;-77
2022/01/24 10:09:28;;;;;;;5.60;5.10;;;13.00;96.50;;;;;;5025462;28;20227;-78
2022/01/24 10:12:35;;;;;;;5.60;5.10;;;12.80;94.50;;;;;;5025304;28;20251;-78
2022/01/24 10:17:52;;;;;;;6.53;6.03;;;12.70;94.90;;;;;;4999004;28;20247;-78
2022/01/24 10:20:26;;;;;;;5.53;5.03;;;13.10;94.70;;;;;;5025611;28;20575;-77
2022/01/24 10:23:24;;;;;;;5.82;5.43;;;13.10;94.50;;;;;;5025363;28;20213;-78
2022/01/24 10:25:59;;;;;;;6.35;5.75;;;13.00;93.50;;;;;;4982378;28;20233;-77
2022/01/24 10:28:31;;;;;;;5.82;5.22;;;13.30;93.50;;;;;;5031004;28;20197;-76
2022/01/24 10:31:10;;;;;;;4.47;4.18;;;13.30;93.00;;;;;;5029981;28;20288;-76
2022/01/24 10:33:52;;;;;;;5.20;4.80;;;13.50;92.90;;;;;;5028466;28;20280;-76
2022/01/24 10:36:34;;;;;;;4.80;4.50;;;13.70;92.40;;;;;;5023315;28;20205;-76
2022/01/24 10:39:18;;;;;;;4.45;4.15;;;13.90;92.10;;;;;;5031520;28;20198;-77
2022/01/24 10:41:58;;;;;;;5.32;4.93;;;14.20;91.60;;;;;;5027059;28;20300;-75
2022/01/24 10:44:30;;;;;;;4.63;4.32;;;14.40;90.80;;;;;;5029411;28;20197;-75
2022/01/24 10:47:12;;;;;;;5.22;4.82;;;14.60;91.10;;;;;;5033697;28;20201;-75
2022/01/24 10:49:41;;;;;;;5.13;4.63;;;14.60;90.30;;;;;;5036300;28;20312;-76
2022/01/24 10:52:12;;;;;;;4.85;4.55;;;14.30;90.10;;;;;;5034458;28;20213;-76
2022/01/24 10:54:41;;;;;;;4.80;4.40;;;14.00;90.20;;;;;;5025193;28;20194;-76
2022/01/24 10:57:08;;;;;;;4.57;4.25;;;13.60;90.30;;;;;;5025011;28;20277;-76
2022/01/24 10:59:36;;;;;;;4.45;4.15;;;13.70;90.60;;;;;;5026211;28;20289;-76
2022/01/24 11:02:04;;;;;;;4.10;3.72;;;13.70;90.30;;;;;;5026835;28;20216;-78
2022/01/24 11:04:33;;;;;;;4.10;3.80;;;13.60;89.90;;;;;;5027080;28;20217;-78
2022/01/24 11:07:03;;;;;;;3.50;3.30;;;13.30;89.50;;;;;;5026445;28;20205;-78
2022/01/24 11:09:31;;;;;;;3.60;3.40;;;13.30;90.60;;;;;;5026900;28;20217;-78
2022/01/24 11:12:02;;;;;;;3.58;3.28;;;13.50;90.30;;;;;;5030221;28;20224;-76
2022/01/24 11:14:31;;;;;;;4.00;3.70;;;13.30;89.40;;;;;;5030915;28;20206;-82
2022/01/24 11:17:00;;;;;;;4.10;3.80;;;13.40;89.50;;;;;;5031340;28;20263;-80
2022/01/24 11:19:32;;;;;;;3.50;3.20;;;13.40;89.70;;;;;;5026637;28;20198;-78
2022/01/24 11:22:04;;;;;;;3.35;3.15;;;13.60;90.10;;;;;;5031459;28;20693;-78
2022/01/24 11:24:39;;;;;;;4.95;4.30;;;13.60;89.50;;;;;;5030638;28;20289;-76
2022/01/24 11:27:09;;;;;;;4.30;3.90;;;13.40;88.40;;;;;;5029973;28;20193;-74
2022/01/24 11:29:37;;;;;;;4.40;4.00;;;13.00;90.00;;;;;;5031377;28;20219;-74
2022/01/24 11:32:15;;;;;;;4.10;3.72;;;13.30;90.50;;;;;;5031528;28;20580;-73
2022/01/24 11:34:48;;;;;;;4.20;3.60;;;13.90;88.10;;;;;;5031080;28;20247;-72
2022/01/24 11:37:32;;;;;;;4.10;3.70;;;13.80;87.90;;;;;;5029533;28;20208;-76
2022/01/24 11:40:00;;;;;;;4.05;3.65;;;13.70;88.30;;;;;;5025046;28;20546;-78
2022/01/24 11:42:33;;;;;;;3.83;3.50;;;13.60;87.30;;;;;;5026866;28;20320;-78
2022/01/24 11:45:05;;;;;;;3.60;3.22;;;13.50;88.60;;;;;;5033500;28;20194;-77
2022/01/24 11:47:32;;;;;;;3.88;3.58;;;13.40;88.40;;;;;;5033722;28;20256;-75
2022/01/24 11:49:59;;;;;;;3.47;3.17;;;13.30;88.50;;;;;;5034170;28;20788;-78
2022/01/24 11:52:32;;;;;;;3.45;3.25;;;13.40;88.70;;;;;;5034074;28;20235;-80
2022/01/24 11:55:13;;;;;;;3.42;3.13;;;13.70;88.80;;;;;;5034226;28;20529;-71
2022/01/24 11:57:45;;;;;;;3.58;3.28;;;14.00;88.50;;;;;;5033377;28;20221;-77
2022/01/24 12:00:23;;;;;;;4.50;4.10;;;14.30;87.80;;;;;;5033777;28;20205;-77
2022/01/24 12:02:53;;;;;;;3.47;3.17;;;14.40;86.60;;;;;;5032371;28;20228;-77
2022/01/24 12:05:21;;;;;;;3.38;3.15;;;14.30;87.60;;;;;;5033412;28;20201;-80
2022/01/24 12:07:50;;;;;;;4.33;2.97;;;14.60;86.70;;;;;;5027740;28;20202;-77
2022/01/24 12:10:45;;;;;;;3.83;3.40;;;15.20;85.70;;;;;;5028349;28;20867;-77
2022/01/24 12:13:19;;;;;;;3.87;3.57;;;15.30;84.20;;;;;;5022117;28;20689;-76
2022/01/24 12:16:06;;;;;;;3.50;3.20;;;15.00;84.70;;;;;;5026256;28;20460;-77
2022/01/24 12:19:07;;;;;;;3.63;3.33;;;15.10;84.50;;;;;;5029468;28;20300;-83
2022/01/24 12:21:37;;;;;;;3.38;3.10;;;15.10;84.20;;;;;;5032505;28;20412;-82
2022/01/24 12:24:08;;;;;;;5.30;3.43;;;15.20;84.30;;;;;;5034103;28;20196;-81
2022/01/24 12:26:38;;;;;;;3.70;3.40;;;15.60;84.00;;;;;;5034634;28;20495;-82
2022/01/24 12:29:10;;;;;;;4.30;3.47;;;15.30;82.30;;;;;;5033772;28;20545;-84
2022/01/24 12:31:46;;;;;;;3.27;2.97;;;15.70;83.40;;;;;;5033683;28;20991;-81
2022/01/24 12:34:32;;;;;;;3.97;3.57;;;15.70;82.30;;;;;;5033933;28;20535;-80
2022/01/24 12:37:08;;;;;;;3.70;2.87;;;16.10;82.50;;;;;;5030712;28;20485;-82
2022/01/24 12:39:55;;;;;;;3.37;2.87;;;16.70;81.10;;;;;;5033583;28;20462;-83
2022/01/24 12:42:42;;;;;;;3.10;2.90;;;17.20;79.60;;;;;;5026974;28;20474;-88
2022/01/24 12:48:08;;;;;;;3.10;2.80;;;16.90;78.70;;;;;;5037782;28;20459;-88
2022/01/24 12:50:35;;;;;;;3.73;3.43;;;17.00;78.50;;;;;;5058049;28;20456;-90
2022/01/24 12:53:10;;;;;;;4.53;3.50;;;17.20;77.40;;;;;;5055116;28;20518;-89
2022/01/24 12:55:37;;;;;;;3.07;2.77;;;17.70;77.10;;;;;;5040084;28;20488;-84
2022/01/24 12:58:04;;;;;;;4.27;3.93;;;18.20;75.70;;;;;;5040057;28;20460;-79
2022/01/24 13:00:32;;;;;;;3.10;2.90;;;18.40;74.00;;;;;;5031687;28;20518;-80
2022/01/24 13:02:59;;;;;;;3.63;3.33;;;18.70;72.60;;;;;;5029907;28;20827;-77
2022/01/24 13:05:28;;;;;;;3.77;3.40;;;18.60;73.80;;;;;;5032179;28;20453;-78
2022/01/24 13:07:58;;;;;;;5.07;3.47;;;18.30;71.60;;;;;;5031556;28;20908;-81
2022/01/24 13:10:27;;;;;;;3.67;3.37;;;17.70;72.10;;;;;;5032562;28;20806;-81
2022/01/24 13:13:00;;;;;;;4.17;3.87;;;17.60;73.40;;;;;;5031151;28;20578;-81
2022/01/24 13:21:12;;;;;;;3.40;3.10;;;16.20;77.00;;;;;;5030066;28;20489;-80
2022/01/24 13:23:43;;;;;;;3.43;3.13;;;16.60;77.30;;;;;;5029012;28;20460;-74
2022/01/24 13:26:12;;;;;;;3.17;2.90;;;17.30;76.80;;;;;;5029834;28;21018;-75
2022/01/24 13:28:39;;;;;;;4.10;3.23;;;17.90;75.40;;;;;;5029847;28;20560;-73
2022/01/24 13:31:07;;;;;;;3.50;3.20;;;18.40;74.10;;;;;;5032500;28;20532;-74
2022/01/24 13:33:39;;;;;;;3.60;3.30;;;19.00;72.80;;;;;;5031079;28;20541;-73
2022/01/24 13:36:08;;;;;;;3.30;3.10;;;19.10;71.60;;;;;;5029771;28;20552;-73
2022/01/24 13:38:36;;;;;;;3.10;2.90;;;19.30;72.00;;;;;;5029752;28;20458;-74
2022/01/24 13:41:08;;;;;;;3.80;3.20;;;19.50;70.60;;;;;;5030444;28;20508;-74
2022/01/24 13:43:39;;;;;;;3.77;3.40;;;19.80;69.60;;;;;;5028627;28;20456;-74
2022/01/24 13:46:08;;;;;;;4.00;3.60;;;19.60;68.60;;;;;;5030910;28;20468;-74
2022/01/24 13:48:45;;;;;;;3.70;3.40;;;19.60;68.70;;;;;;5018394;28;20463;-74
2022/01/24 13:51:14;;;;;;;3.73;3.43;;;19.30;67.00;;;;;;5027902;28;20491;-74
2022/01/24 13:53:44;;;;;;;3.77;3.13;;;18.20;68.60;;;;;;5026580;28;20460;-74
2022/01/24 13:56:23;;;;;;;3.47;3.17;;;17.90;69.70;;;;;;5026095;28;20460;-73
2022/01/24 13:59:12;;;;;;;3.13;2.90;;;17.90;70.80;;;;;;5024584;28;20480;-74
2022/01/24 14:01:50;;;;;;;3.40;3.10;;;17.50;71.00;;;;;;5021315;28;20515;-74
2022/01/24 14:04:33;;;;;;;4.07;3.70;;;17.60;71.10;;;;;;5022489;28;20456;-74
2022/01/24 14:07:03;;;;;;;3.60;3.30;;;17.30;71.30;;;;;;5024829;28;20459;-74
2022/01/24 14:09:36;;;;;;;3.30;3.00;;;17.20;72.30;;;;;;5024586;28;20957;-74
2022/01/24 14:12:04;;;;;;;3.50;3.23;;;17.30;72.20;;;;;;5024469;28;20499;-74
2022/01/24 14:14:41;;;;;;;4.07;3.40;;;17.30;72.30;;;;;;5026759;28;20464;-74
2022/01/24 14:17:22;;;;;;;3.30;3.00;;;17.20;71.80;;;;;;5027018;28;20864;-76
2022/01/24 14:19:57;;;;;;;2.90;2.70;;;17.00;71.70;;;;;;5024123;28;20454;-74
2022/01/24 14:22:37;;;;;;;3.60;3.30;;;16.70;72.80;;;;;;5028774;28;20484;-74
2022/01/24 14:25:05;;;;;;;3.63;3.10;;;16.40;72.90;;;;;;5029012;28;20460;-74